sensor_id;sensor_type;location;lat;lon;timestamp;P1;durP1;ratioP1;P2;durP2;ratioP2
9188;SDS011;34313;50.780;6.084;2023-08-17T00:01:59;10.80;;;8.73;;
9188;SDS011;34313;50.780;6.084;2023-08-17T00:04:25;13.70;;;9.70;;
9188;SDS011;34313;50.780;6.084;2023-08-17T00:06:50;10.60;;;9.50;;
9188;SDS011;34313;50.780;6.084;2023-08-17T00:09:16;13.53;;;9.53;;
9188;SDS011;34313;50.780;6.084;2023-08-17T00:11:41;10.37;;;9.23;;
9188;SDS011;34313;50.780;6.084;2023-08-17T00:14:06;12.10;;;8.20;;
9188;SDS011;34313;50.780;6.084;2023-08-17T00:16:31;10.10;;;8.27;;
9188;SDS011;34313;50.780;6.084;2023-08-17T00:18:57;11.93;;;10.67;;
9188;SDS011;34313;50.780;6.084;2023-08-17T00:21:22;14.37;;;11.43;;
9188;SDS011;34313;50.780;6.084;2023-08-17T00:23:48;15.10;;;12.43;;
9188;SDS011;34313;50.780;6.084;2023-08-17T00:26:14;11.63;;;10.20;;
9188;SDS011;34313;50.780;6.084;2023-08-17T00:28:39;15.83;;;12.60;;
9188;SDS011;34313;50.780;6.084;2023-08-17T00:31:04;15.93;;;14.00;;
9188;SDS011;34313;50.780;6.084;2023-08-17T00:33:30;14.63;;;12.50;;
9188;SDS011;34313;50.780;6.084;2023-08-17T00:35:55;15.83;;;13.93;;
9188;SDS011;34313;50.780;6.084;2023-08-17T00:38:20;17.50;;;13.20;;
9188;SDS011;34313;50.780;6.084;2023-08-17T00:40:46;15.90;;;13.60;;
9188;SDS011;34313;50.780;6.084;2023-08-17T00:43:12;17.43;;;15.17;;
9188;SDS011;34313;50.780;6.084;2023-08-17T00:45:37;23.33;;;17.07;;
9188;SDS011;34313;50.780;6.084;2023-08-17T00:48:03;19.03;;;15.53;;
9188;SDS011;34313;50.780;6.084;2023-08-17T00:50:32;22.27;;;17.93;;
9188;SDS011;34313;50.780;6.084;2023-08-17T00:52:59;21.60;;;16.87;;
9188;SDS011;34313;50.780;6.084;2023-08-17T00:55:24;17.57;;;14.93;;
9188;SDS011;34313;50.780;6.084;2023-08-17T00:57:50;21.30;;;16.87;;
9188;SDS011;34313;50.780;6.084;2023-08-17T01:00:16;26.63;;;18.30;;
9188;SDS011;34313;50.780;6.084;2023-08-17T01:02:42;17.97;;;15.80;;
9188;SDS011;34313;50.780;6.084;2023-08-17T01:05:08;21.37;;;17.53;;
9188;SDS011;34313;50.780;6.084;2023-08-17T01:07:34;21.17;;;16.77;;
9188;SDS011;34313;50.780;6.084;2023-08-17T01:09:59;30.50;;;21.07;;
9188;SDS011;34313;50.780;6.084;2023-08-17T01:12:30;30.57;;;24.47;;
9188;SDS011;34313;50.780;6.084;2023-08-17T01:15:02;29.37;;;22.07;;
9188;SDS011;34313;50.780;6.084;2023-08-17T01:17:29;24.33;;;21.37;;
9188;SDS011;34313;50.780;6.084;2023-08-17T01:19:58;28.93;;;21.70;;
9188;SDS011;34313;50.780;6.084;2023-08-17T01:22:25;27.80;;;24.40;;
9188;SDS011;34313;50.780;6.084;2023-08-17T01:24:54;26.50;;;23.63;;
9188;SDS011;34313;50.780;6.084;2023-08-17T01:27:22;33.03;;;24.50;;
9188;SDS011;34313;50.780;6.084;2023-08-17T01:29:48;30.50;;;24.97;;
9188;SDS011;34313;50.780;6.084;2023-08-17T01:32:19;28.53;;;24.47;;
9188;SDS011;34313;50.780;6.084;2023-08-17T01:35:01;28.50;;;23.20;;
9188;SDS011;34313;50.780;6.084;2023-08-17T01:37:34;31.27;;;25.20;;
9188;SDS011;34313;50.780;6.084;2023-08-17T01:40:03;35.00;;;25.17;;
9188;SDS011;34313;50.780;6.084;2023-08-17T01:42:30;28.23;;;23.27;;
9188;SDS011;34313;50.780;6.084;2023-08-17T01:44:55;26.80;;;22.40;;
9188;SDS011;34313;50.780;6.084;2023-08-17T01:47:21;26.67;;;21.57;;
9188;SDS011;34313;50.780;6.084;2023-08-17T01:49:47;21.57;;;18.90;;
9188;SDS011;34313;50.780;6.084;2023-08-17T01:52:12;21.67;;;18.97;;
9188;SDS011;34313;50.780;6.084;2023-08-17T01:54:38;21.97;;;17.40;;
9188;SDS011;34313;50.780;6.084;2023-08-17T01:57:03;23.40;;;18.00;;
9188;SDS011;34313;50.780;6.084;2023-08-17T01:59:28;21.03;;;17.67;;
9188;SDS011;34313;50.780;6.084;2023-08-17T02:01:54;20.20;;;17.83;;
9188;SDS011;34313;50.780;6.084;2023-08-17T02:04:19;22.80;;;17.50;;
9188;SDS011;34313;50.780;6.084;2023-08-17T02:06:44;24.70;;;19.07;;
9188;SDS011;34313;50.780;6.084;2023-08-17T02:09:09;21.90;;;19.33;;
9188;SDS011;34313;50.780;6.084;2023-08-17T02:11:35;25.80;;;18.83;;
9188;SDS011;34313;50.780;6.084;2023-08-17T02:14:00;21.07;;;17.13;;
9188;SDS011;34313;50.780;6.084;2023-08-17T02:16:25;23.33;;;16.23;;
9188;SDS011;34313;50.780;6.084;2023-08-17T02:18:51;23.37;;;18.00;;
9188;SDS011;34313;50.780;6.084;2023-08-17T02:21:16;30.70;;;18.63;;
9188;SDS011;34313;50.780;6.084;2023-08-17T02:23:41;23.33;;;17.53;;
9188;SDS011;34313;50.780;6.084;2023-08-17T02:26:06;20.70;;;17.23;;
9188;SDS011;34313;50.780;6.084;2023-08-17T02:28:32;26.07;;;19.13;;
9188;SDS011;34313;50.780;6.084;2023-08-17T02:30:59;26.17;;;16.73;;
9188;SDS011;34313;50.780;6.084;2023-08-17T02:33:24;20.93;;;16.27;;
9188;SDS011;34313;50.780;6.084;2023-08-17T02:35:50;26.83;;;18.43;;
9188;SDS011;34313;50.780;6.084;2023-08-17T02:38:15;21.23;;;16.80;;
9188;SDS011;34313;50.780;6.084;2023-08-17T02:40:41;19.47;;;17.43;;
9188;SDS011;34313;50.780;6.084;2023-08-17T02:43:06;18.67;;;14.17;;
9188;SDS011;34313;50.780;6.084;2023-08-17T02:45:33;20.30;;;16.67;;
9188;SDS011;34313;50.780;6.084;2023-08-17T02:47:58;22.17;;;18.13;;
9188;SDS011;34313;50.780;6.084;2023-08-17T02:50:24;22.83;;;20.07;;
9188;SDS011;34313;50.780;6.084;2023-08-17T02:52:49;23.03;;;20.50;;
9188;SDS011;34313;50.780;6.084;2023-08-17T02:55:14;28.50;;;21.70;;
9188;SDS011;34313;50.780;6.084;2023-08-17T02:57:40;27.00;;;22.10;;
9188;SDS011;34313;50.780;6.084;2023-08-17T03:00:05;23.20;;;19.67;;
9188;SDS011;34313;50.780;6.084;2023-08-17T03:02:31;23.83;;;20.00;;
9188;SDS011;34313;50.780;6.084;2023-08-17T03:04:56;23.87;;;21.20;;
9188;SDS011;34313;50.780;6.084;2023-08-17T03:07:21;27.43;;;19.77;;
9188;SDS011;34313;50.780;6.084;2023-08-17T03:09:47;24.47;;;20.47;;
9188;SDS011;34313;50.780;6.084;2023-08-17T03:12:12;22.17;;;19.67;;
9188;SDS011;34313;50.780;6.084;2023-08-17T03:14:37;24.37;;;21.20;;
9188;SDS011;34313;50.780;6.084;2023-08-17T03:17:03;26.20;;;20.20;;
9188;SDS011;34313;50.780;6.084;2023-08-17T03:19:28;22.70;;;20.27;;
9188;SDS011;34313;50.780;6.084;2023-08-17T03:21:54;26.67;;;21.37;;
9188;SDS011;34313;50.780;6.084;2023-08-17T03:24:19;25.30;;;21.27;;
9188;SDS011;34313;50.780;6.084;2023-08-17T03:26:44;24.33;;;21.40;;
9188;SDS011;34313;50.780;6.084;2023-08-17T03:29:09;23.67;;;21.13;;
9188;SDS011;34313;50.780;6.084;2023-08-17T03:31:35;23.03;;;20.63;;
9188;SDS011;34313;50.780;6.084;2023-08-17T03:34:00;21.60;;;19.20;;
9188;SDS011;34313;50.780;6.084;2023-08-17T03:36:26;24.43;;;20.63;;
9188;SDS011;34313;50.780;6.084;2023-08-17T03:38:51;27.97;;;22.30;;
9188;SDS011;34313;50.780;6.084;2023-08-17T03:41:16;28.00;;;21.50;;
9188;SDS011;34313;50.780;6.084;2023-08-17T03:43:42;31.87;;;23.77;;
9188;SDS011;34313;50.780;6.084;2023-08-17T03:46:07;27.20;;;23.77;;
9188;SDS011;34313;50.780;6.084;2023-08-17T03:48:32;26.27;;;22.67;;
9188;SDS011;34313;50.780;6.084;2023-08-17T03:50:57;30.37;;;27.07;;
9188;SDS011;34313;50.780;6.084;2023-08-17T03:53:23;28.40;;;25.43;;
9188;SDS011;34313;50.780;6.084;2023-08-17T03:55:49;35.10;;;26.17;;
9188;SDS011;34313;50.780;6.084;2023-08-17T03:58:15;31.47;;;26.60;;
9188;SDS011;34313;50.780;6.084;2023-08-17T04:00:41;33.57;;;27.93;;
9188;SDS011;34313;50.780;6.084;2023-08-17T04:03:07;30.40;;;26.07;;
9188;SDS011;34313;50.780;6.084;2023-08-17T04:05:32;31.23;;;27.83;;
9188;SDS011;34313;50.780;6.084;2023-08-17T04:07:58;31.50;;;25.80;;
9188;SDS011;34313;50.780;6.084;2023-08-17T04:10:29;28.33;;;24.27;;
9188;SDS011;34313;50.780;6.084;2023-08-17T04:12:55;28.80;;;25.33;;
9188;SDS011;34313;50.780;6.084;2023-08-17T04:15:21;26.57;;;23.73;;
9188;SDS011;34313;50.780;6.084;2023-08-17T04:17:46;30.07;;;25.63;;
9188;SDS011;34313;50.780;6.084;2023-08-17T04:20:11;28.87;;;23.53;;
9188;SDS011;34313;50.780;6.084;2023-08-17T04:22:37;29.27;;;24.70;;
9188;SDS011;34313;50.780;6.084;2023-08-17T04:25:02;26.40;;;21.27;;
9188;SDS011;34313;50.780;6.084;2023-08-17T04:27:27;24.93;;;21.20;;
9188;SDS011;34313;50.780;6.084;2023-08-17T04:29:53;26.27;;;21.40;;
9188;SDS011;34313;50.780;6.084;2023-08-17T04:32:18;30.23;;;24.70;;
9188;SDS011;34313;50.780;6.084;2023-08-17T04:34:44;33.00;;;24.33;;
9188;SDS011;34313;50.780;6.084;2023-08-17T04:37:10;32.63;;;23.63;;
9188;SDS011;34313;50.780;6.084;2023-08-17T04:39:35;27.43;;;23.57;;
9188;SDS011;34313;50.780;6.084;2023-08-17T04:42:02;34.60;;;23.83;;
9188;SDS011;34313;50.780;6.084;2023-08-17T04:44:28;31.13;;;25.70;;
9188;SDS011;34313;50.780;6.084;2023-08-17T04:46:54;32.07;;;25.33;;
9188;SDS011;34313;50.780;6.084;2023-08-17T04:49:19;29.63;;;25.30;;
9188;SDS011;34313;50.780;6.084;2023-08-17T04:51:44;30.50;;;24.00;;
9188;SDS011;34313;50.780;6.084;2023-08-17T04:54:10;35.33;;;27.37;;
9188;SDS011;34313;50.780;6.084;2023-08-17T04:56:35;40.63;;;29.13;;
9188;SDS011;34313;50.780;6.084;2023-08-17T04:59:00;38.83;;;28.53;;
9188;SDS011;34313;50.780;6.084;2023-08-17T05:01:26;42.17;;;29.33;;
9188;SDS011;34313;50.780;6.084;2023-08-17T05:03:51;38.90;;;29.13;;
9188;SDS011;34313;50.780;6.084;2023-08-17T05:06:16;38.20;;;28.07;;
9188;SDS011;34313;50.780;6.084;2023-08-17T05:08:42;38.47;;;28.30;;
9188;SDS011;34313;50.780;6.084;2023-08-17T05:11:07;35.33;;;28.13;;
9188;SDS011;34313;50.780;6.084;2023-08-17T05:13:32;39.90;;;27.87;;
9188;SDS011;34313;50.780;6.084;2023-08-17T05:15:57;39.83;;;27.60;;
9188;SDS011;34313;50.780;6.084;2023-08-17T05:18:23;38.90;;;29.33;;
9188;SDS011;34313;50.780;6.084;2023-08-17T05:20:48;38.30;;;26.63;;
9188;SDS011;34313;50.780;6.084;2023-08-17T05:23:13;32.43;;;26.57;;
9188;SDS011;34313;50.780;6.084;2023-08-17T05:25:39;43.57;;;32.50;;
9188;SDS011;34313;50.780;6.084;2023-08-17T05:28:04;39.23;;;30.00;;
9188;SDS011;34313;50.780;6.084;2023-08-17T05:30:30;33.63;;;28.00;;
9188;SDS011;34313;50.780;6.084;2023-08-17T05:32:55;40.50;;;29.67;;
9188;SDS011;34313;50.780;6.084;2023-08-17T05:35:20;39.80;;;30.20;;
9188;SDS011;34313;50.780;6.084;2023-08-17T05:37:45;40.37;;;28.37;;
9188;SDS011;34313;50.780;6.084;2023-08-17T05:40:11;51.67;;;33.53;;
9188;SDS011;34313;50.780;6.084;2023-08-17T05:42:36;47.30;;;33.57;;
9188;SDS011;34313;50.780;6.084;2023-08-17T05:45:01;46.33;;;32.07;;
9188;SDS011;34313;50.780;6.084;2023-08-17T05:47:27;46.60;;;33.90;;
9188;SDS011;34313;50.780;6.084;2023-08-17T05:49:52;41.07;;;29.90;;
9188;SDS011;34313;50.780;6.084;2023-08-17T05:52:17;52.70;;;31.63;;
9188;SDS011;34313;50.780;6.084;2023-08-17T05:54:45;41.07;;;30.40;;
9188;SDS011;34313;50.780;6.084;2023-08-17T05:57:16;38.17;;;28.30;;
9188;SDS011;34313;50.780;6.084;2023-08-17T05:59:47;50.83;;;30.40;;
9188;SDS011;34313;50.780;6.084;2023-08-17T06:02:12;50.47;;;32.90;;
9188;SDS011;34313;50.780;6.084;2023-08-17T06:04:38;45.23;;;29.50;;
9188;SDS011;34313;50.780;6.084;2023-08-17T06:07:03;52.40;;;32.73;;
9188;SDS011;34313;50.780;6.084;2023-08-17T06:09:29;57.00;;;34.90;;
9188;SDS011;34313;50.780;6.084;2023-08-17T06:11:54;56.50;;;34.83;;
9188;SDS011;34313;50.780;6.084;2023-08-17T06:14:19;53.30;;;31.90;;
9188;SDS011;34313;50.780;6.084;2023-08-17T06:16:45;52.63;;;33.73;;
9188;SDS011;34313;50.780;6.084;2023-08-17T06:19:10;57.53;;;36.90;;
9188;SDS011;34313;50.780;6.084;2023-08-17T06:21:36;66.97;;;39.30;;
9188;SDS011;34313;50.780;6.084;2023-08-17T06:24:01;60.37;;;40.60;;
9188;SDS011;34313;50.780;6.084;2023-08-17T06:26:26;60.80;;;39.70;;
9188;SDS011;34313;50.780;6.084;2023-08-17T06:28:52;70.23;;;39.93;;
9188;SDS011;34313;50.780;6.084;2023-08-17T06:31:17;63.53;;;40.57;;
9188;SDS011;34313;50.780;6.084;2023-08-17T06:33:42;73.50;;;41.40;;
9188;SDS011;34313;50.780;6.084;2023-08-17T06:36:08;76.97;;;42.13;;
9188;SDS011;34313;50.780;6.084;2023-08-17T06:38:33;64.80;;;39.07;;
9188;SDS011;34313;50.780;6.084;2023-08-17T06:40:58;68.77;;;41.63;;
9188;SDS011;34313;50.780;6.084;2023-08-17T06:43:24;79.83;;;44.50;;
9188;SDS011;34313;50.780;6.084;2023-08-17T06:45:49;66.77;;;41.00;;
9188;SDS011;34313;50.780;6.084;2023-08-17T06:48:14;69.37;;;43.43;;
9188;SDS011;34313;50.780;6.084;2023-08-17T06:50:39;72.17;;;43.00;;
9188;SDS011;34313;50.780;6.084;2023-08-17T06:53:05;74.77;;;43.20;;
9188;SDS011;34313;50.780;6.084;2023-08-17T06:55:30;71.20;;;42.10;;
9188;SDS011;34313;50.780;6.084;2023-08-17T06:57:56;73.53;;;43.43;;
9188;SDS011;34313;50.780;6.084;2023-08-17T07:00:22;72.90;;;44.23;;
9188;SDS011;34313;50.780;6.084;2023-08-17T07:02:47;77.20;;;43.47;;
9188;SDS011;34313;50.780;6.084;2023-08-17T07:05:16;70.43;;;43.00;;
9188;SDS011;34313;50.780;6.084;2023-08-17T07:07:43;70.97;;;42.50;;
9188;SDS011;34313;50.780;6.084;2023-08-17T07:10:09;70.50;;;43.73;;
9188;SDS011;34313;50.780;6.084;2023-08-17T07:12:37;73.33;;;41.63;;
9188;SDS011;34313;50.780;6.084;2023-08-17T07:15:03;65.90;;;42.37;;
9188;SDS011;34313;50.780;6.084;2023-08-17T07:17:30;64.47;;;41.13;;
9188;SDS011;34313;50.780;6.084;2023-08-17T07:19:55;58.63;;;39.57;;
9188;SDS011;34313;50.780;6.084;2023-08-17T07:22:21;69.80;;;43.90;;
9188;SDS011;34313;50.780;6.084;2023-08-17T07:24:46;65.37;;;39.90;;
9188;SDS011;34313;50.780;6.084;2023-08-17T07:27:11;68.33;;;40.93;;
9188;SDS011;34313;50.780;6.084;2023-08-17T07:29:37;66.30;;;39.17;;
9188;SDS011;34313;50.780;6.084;2023-08-17T07:32:02;63.13;;;37.77;;
9188;SDS011;34313;50.780;6.084;2023-08-17T07:34:28;65.47;;;41.20;;
9188;SDS011;34313;50.780;6.084;2023-08-17T07:36:56;70.40;;;42.73;;
9188;SDS011;34313;50.780;6.084;2023-08-17T07:39:21;66.33;;;41.60;;
9188;SDS011;34313;50.780;6.084;2023-08-17T07:41:46;64.40;;;41.50;;
9188;SDS011;34313;50.780;6.084;2023-08-17T07:44:12;56.83;;;38.33;;
9188;SDS011;34313;50.780;6.084;2023-08-17T07:46:37;57.73;;;37.73;;
9188;SDS011;34313;50.780;6.084;2023-08-17T07:49:03;60.20;;;39.20;;
9188;SDS011;34313;50.780;6.084;2023-08-17T07:51:28;59.67;;;38.17;;
9188;SDS011;34313;50.780;6.084;2023-08-17T07:53:55;62.90;;;40.43;;
9188;SDS011;34313;50.780;6.084;2023-08-17T07:56:21;55.67;;;37.03;;
9188;SDS011;34313;50.780;6.084;2023-08-17T07:58:46;50.83;;;33.80;;
9188;SDS011;34313;50.780;6.084;2023-08-17T08:01:11;46.30;;;30.50;;
9188;SDS011;34313;50.780;6.084;2023-08-17T08:03:37;43.90;;;29.83;;
9188;SDS011;34313;50.780;6.084;2023-08-17T08:06:02;38.57;;;28.77;;
9188;SDS011;34313;50.780;6.084;2023-08-17T08:08:27;38.93;;;28.27;;
9188;SDS011;34313;50.780;6.084;2023-08-17T08:10:53;56.80;;;32.43;;
9188;SDS011;34313;50.780;6.084;2023-08-17T08:13:19;43.53;;;31.03;;
9188;SDS011;34313;50.780;6.084;2023-08-17T08:15:45;54.60;;;37.80;;
9188;SDS011;34313;50.780;6.084;2023-08-17T08:18:10;56.17;;;36.47;;
9188;SDS011;34313;50.780;6.084;2023-08-17T08:20:35;56.33;;;36.67;;
9188;SDS011;34313;50.780;6.084;2023-08-17T08:23:00;58.13;;;36.93;;
9188;SDS011;34313;50.780;6.084;2023-08-17T08:25:27;47.97;;;32.70;;
9188;SDS011;34313;50.780;6.084;2023-08-17T08:27:52;52.33;;;34.63;;
9188;SDS011;34313;50.780;6.084;2023-08-17T08:30:17;50.70;;;33.97;;
9188;SDS011;34313;50.780;6.084;2023-08-17T08:32:43;51.73;;;34.33;;
9188;SDS011;34313;50.780;6.084;2023-08-17T08:35:08;48.97;;;34.43;;
9188;SDS011;34313;50.780;6.084;2023-08-17T08:37:34;49.93;;;33.73;;
9188;SDS011;34313;50.780;6.084;2023-08-17T08:39:59;48.97;;;33.90;;
9188;SDS011;34313;50.780;6.084;2023-08-17T08:42:24;53.43;;;34.57;;
9188;SDS011;34313;50.780;6.084;2023-08-17T08:44:50;51.13;;;32.73;;
9188;SDS011;34313;50.780;6.084;2023-08-17T08:47:18;45.70;;;32.47;;
9188;SDS011;34313;50.780;6.084;2023-08-17T08:49:48;49.47;;;34.20;;
9188;SDS011;34313;50.780;6.084;2023-08-17T08:52:22;50.07;;;33.90;;
9188;SDS011;34313;50.780;6.084;2023-08-17T08:54:50;47.50;;;32.47;;
9188;SDS011;34313;50.780;6.084;2023-08-17T08:57:20;46.47;;;33.50;;
9188;SDS011;34313;50.780;6.084;2023-08-17T08:59:47;51.73;;;34.90;;
9188;SDS011;34313;50.780;6.084;2023-08-17T09:02:16;47.10;;;33.07;;
9188;SDS011;34313;50.780;6.084;2023-08-17T09:04:45;48.53;;;33.57;;
9188;SDS011;34313;50.780;6.084;2023-08-17T09:07:11;49.97;;;32.73;;
9188;SDS011;34313;50.780;6.084;2023-08-17T09:09:39;45.97;;;33.57;;
9188;SDS011;34313;50.780;6.084;2023-08-17T09:12:07;42.23;;;29.90;;
9188;SDS011;34313;50.780;6.084;2023-08-17T09:14:34;43.47;;;29.20;;
9188;SDS011;34313;50.780;6.084;2023-08-17T09:17:00;40.63;;;27.67;;
9188;SDS011;34313;50.780;6.084;2023-08-17T09:19:25;41.43;;;28.23;;
9188;SDS011;34313;50.780;6.084;2023-08-17T09:21:50;43.47;;;29.63;;
9188;SDS011;34313;50.780;6.084;2023-08-17T09:24:16;45.17;;;28.07;;
9188;SDS011;34313;50.780;6.084;2023-08-17T09:26:41;41.37;;;26.90;;
9188;SDS011;34313;50.780;6.084;2023-08-17T09:29:19;36.00;;;24.77;;
9188;SDS011;34313;50.780;6.084;2023-08-17T09:31:46;40.13;;;26.90;;
9188;SDS011;34313;50.780;6.084;2023-08-17T09:34:11;44.53;;;26.93;;
9188;SDS011;34313;50.780;6.084;2023-08-17T09:36:39;40.33;;;28.40;;
9188;SDS011;34313;50.780;6.084;2023-08-17T09:39:05;35.20;;;26.67;;
9188;SDS011;34313;50.780;6.084;2023-08-17T09:41:31;36.30;;;27.73;;
9188;SDS011;34313;50.780;6.084;2023-08-17T09:44:03;40.37;;;28.67;;
9188;SDS011;34313;50.780;6.084;2023-08-17T09:46:29;34.47;;;26.07;;
9188;SDS011;34313;50.780;6.084;2023-08-17T09:48:54;40.50;;;27.43;;
9188;SDS011;34313;50.780;6.084;2023-08-17T09:51:20;36.70;;;27.90;;
9188;SDS011;34313;50.780;6.084;2023-08-17T09:53:51;36.70;;;26.23;;
9188;SDS011;34313;50.780;6.084;2023-08-17T09:56:17;31.57;;;24.50;;
9188;SDS011;34313;50.780;6.084;2023-08-17T09:58:46;32.83;;;23.20;;
9188;SDS011;34313;50.780;6.084;2023-08-17T10:01:11;35.67;;;25.10;;
9188;SDS011;34313;50.780;6.084;2023-08-17T10:03:39;31.43;;;22.93;;
9188;SDS011;34313;50.780;6.084;2023-08-17T10:06:09;35.00;;;23.43;;
9188;SDS011;34313;50.780;6.084;2023-08-17T10:08:39;31.60;;;23.27;;
9188;SDS011;34313;50.780;6.084;2023-08-17T10:11:08;32.57;;;22.50;;
9188;SDS011;34313;50.780;6.084;2023-08-17T10:13:40;28.60;;;21.47;;
9188;SDS011;34313;50.780;6.084;2023-08-17T10:16:14;31.30;;;21.03;;
9188;SDS011;34313;50.780;6.084;2023-08-17T10:24:01;36.10;;;24.33;;
9188;SDS011;34313;50.780;6.084;2023-08-17T10:26:28;43.63;;;23.67;;
9188;SDS011;34313;50.780;6.084;2023-08-17T10:28:54;33.63;;;23.47;;
9188;SDS011;34313;50.780;6.084;2023-08-17T10:31:22;32.60;;;24.20;;
9188;SDS011;34313;50.780;6.084;2023-08-17T10:33:48;32.17;;;21.50;;
9188;SDS011;34313;50.780;6.084;2023-08-17T10:36:14;32.63;;;24.00;;
9188;SDS011;34313;50.780;6.084;2023-08-17T10:38:40;30.03;;;22.77;;
9188;SDS011;34313;50.780;6.084;2023-08-17T10:41:09;33.30;;;23.13;;
9188;SDS011;34313;50.780;6.084;2023-08-17T10:43:55;34.57;;;23.23;;
9188;SDS011;34313;50.780;6.084;2023-08-17T10:46:31;35.07;;;23.77;;
9188;SDS011;34313;50.780;6.084;2023-08-17T10:49:00;30.13;;;22.23;;
9188;SDS011;34313;50.780;6.084;2023-08-17T10:51:29;31.90;;;23.87;;
9188;SDS011;34313;50.780;6.084;2023-08-17T10:53:54;32.53;;;23.80;;
9188;SDS011;34313;50.780;6.084;2023-08-17T10:56:24;36.70;;;24.63;;
9188;SDS011;34313;50.780;6.084;2023-08-17T10:58:52;35.73;;;24.50;;
9188;SDS011;34313;50.780;6.084;2023-08-17T11:01:39;35.17;;;24.33;;
9188;SDS011;34313;50.780;6.084;2023-08-17T11:04:08;30.93;;;24.10;;
9188;SDS011;34313;50.780;6.084;2023-08-17T11:06:36;38.07;;;23.73;;
9188;SDS011;34313;50.780;6.084;2023-08-17T11:09:05;28.17;;;21.83;;
9188;SDS011;34313;50.780;6.084;2023-08-17T11:11:31;31.83;;;23.60;;
9188;SDS011;34313;50.780;6.084;2023-08-17T11:13:57;36.30;;;24.43;;
9188;SDS011;34313;50.780;6.084;2023-08-17T11:16:22;35.17;;;24.80;;
9188;SDS011;34313;50.780;6.084;2023-08-17T11:18:48;26.70;;;23.17;;
9188;SDS011;34313;50.780;6.084;2023-08-17T11:21:14;29.37;;;21.83;;
9188;SDS011;34313;50.780;6.084;2023-08-17T11:23:41;24.77;;;18.77;;
9188;SDS011;34313;50.780;6.084;2023-08-17T11:26:07;28.30;;;23.50;;
9188;SDS011;34313;50.780;6.084;2023-08-17T11:28:32;26.93;;;21.60;;
9188;SDS011;34313;50.780;6.084;2023-08-17T11:31:05;31.47;;;23.80;;
9188;SDS011;34313;50.780;6.084;2023-08-17T11:33:32;36.77;;;24.57;;
9188;SDS011;34313;50.780;6.084;2023-08-17T11:35:58;33.37;;;24.87;;
9188;SDS011;34313;50.780;6.084;2023-08-17T11:38:25;32.03;;;24.77;;
9188;SDS011;34313;50.780;6.084;2023-08-17T11:40:51;33.90;;;25.40;;
9188;SDS011;34313;50.780;6.084;2023-08-17T11:43:17;35.53;;;25.17;;
9188;SDS011;34313;50.780;6.084;2023-08-17T11:45:43;35.93;;;24.63;;
9188;SDS011;34313;50.780;6.084;2023-08-17T11:48:09;36.97;;;25.70;;
9188;SDS011;34313;50.780;6.084;2023-08-17T11:50:34;38.93;;;26.90;;
9188;SDS011;34313;50.780;6.084;2023-08-17T11:53:00;37.27;;;28.33;;
9188;SDS011;34313;50.780;6.084;2023-08-17T11:55:26;35.00;;;25.37;;
9188;SDS011;34313;50.780;6.084;2023-08-17T11:57:51;39.03;;;28.23;;
9188;SDS011;34313;50.780;6.084;2023-08-17T12:00:20;37.03;;;27.50;;
9188;SDS011;34313;50.780;6.084;2023-08-17T12:02:49;36.10;;;24.23;;
9188;SDS011;34313;50.780;6.084;2023-08-17T12:05:33;29.87;;;24.20;;
9188;SDS011;34313;50.780;6.084;2023-08-17T12:07:59;35.80;;;26.20;;
9188;SDS011;34313;50.780;6.084;2023-08-17T12:10:27;41.63;;;29.80;;
9188;SDS011;34313;50.780;6.084;2023-08-17T12:12:53;36.80;;;27.90;;
9188;SDS011;34313;50.780;6.084;2023-08-17T12:15:23;39.07;;;28.00;;
9188;SDS011;34313;50.780;6.084;2023-08-17T12:17:49;35.90;;;28.03;;
9188;SDS011;34313;50.780;6.084;2023-08-17T12:20:18;40.30;;;27.60;;
9188;SDS011;34313;50.780;6.084;2023-08-17T12:22:45;38.67;;;28.27;;
9188;SDS011;34313;50.780;6.084;2023-08-17T12:25:11;37.40;;;28.27;;
9188;SDS011;34313;50.780;6.084;2023-08-17T12:27:37;40.93;;;27.37;;
9188;SDS011;34313;50.780;6.084;2023-08-17T12:30:03;33.27;;;26.80;;
9188;SDS011;34313;50.780;6.084;2023-08-17T12:32:29;37.57;;;26.03;;
9188;SDS011;34313;50.780;6.084;2023-08-17T12:34:54;39.20;;;27.73;;
9188;SDS011;34313;50.780;6.084;2023-08-17T12:37:20;33.77;;;25.53;;
9188;SDS011;34313;50.780;6.084;2023-08-17T12:39:48;33.50;;;25.27;;
9188;SDS011;34313;50.780;6.084;2023-08-17T12:42:14;31.63;;;24.77;;
9188;SDS011;34313;50.780;6.084;2023-08-17T12:44:39;35.33;;;27.50;;
9188;SDS011;34313;50.780;6.084;2023-08-17T12:47:05;37.80;;;27.33;;
9188;SDS011;34313;50.780;6.084;2023-08-17T12:49:30;39.13;;;29.07;;
9188;SDS011;34313;50.780;6.084;2023-08-17T12:51:56;41.47;;;30.27;;
9188;SDS011;34313;50.780;6.084;2023-08-17T12:54:21;40.50;;;31.40;;
9188;SDS011;34313;50.780;6.084;2023-08-17T12:56:47;42.37;;;31.40;;
9188;SDS011;34313;50.780;6.084;2023-08-17T12:59:12;44.80;;;31.37;;
9188;SDS011;34313;50.780;6.084;2023-08-17T13:01:38;43.53;;;30.83;;
9188;SDS011;34313;50.780;6.084;2023-08-17T13:04:03;46.40;;;30.47;;
9188;SDS011;34313;50.780;6.084;2023-08-17T13:06:29;40.83;;;29.00;;
9188;SDS011;34313;50.780;6.084;2023-08-17T13:08:54;41.00;;;30.60;;
9188;SDS011;34313;50.780;6.084;2023-08-17T13:11:19;42.90;;;30.43;;
9188;SDS011;34313;50.780;6.084;2023-08-17T13:13:45;41.17;;;32.20;;
9188;SDS011;34313;50.780;6.084;2023-08-17T13:16:10;37.50;;;27.73;;
9188;SDS011;34313;50.780;6.084;2023-08-17T13:18:36;44.77;;;28.10;;
9188;SDS011;34313;50.780;6.084;2023-08-17T13:21:02;42.53;;;29.13;;
9188;SDS011;34313;50.780;6.084;2023-08-17T13:23:27;41.30;;;28.50;;
9188;SDS011;34313;50.780;6.084;2023-08-17T13:25:53;40.17;;;29.20;;
9188;SDS011;34313;50.780;6.084;2023-08-17T13:28:18;43.80;;;29.77;;
9188;SDS011;34313;50.780;6.084;2023-08-17T13:30:43;40.50;;;30.07;;
9188;SDS011;34313;50.780;6.084;2023-08-17T13:33:09;41.03;;;29.63;;
9188;SDS011;34313;50.780;6.084;2023-08-17T13:35:34;38.60;;;27.80;;
9188;SDS011;34313;50.780;6.084;2023-08-17T13:38:00;43.50;;;27.60;;
9188;SDS011;34313;50.780;6.084;2023-08-17T13:40:29;54.57;;;31.27;;
9188;SDS011;34313;50.780;6.084;2023-08-17T13:42:54;47.50;;;28.60;;
9188;SDS011;34313;50.780;6.084;2023-08-17T13:45:19;43.27;;;28.80;;
9188;SDS011;34313;50.780;6.084;2023-08-17T13:47:45;42.70;;;29.00;;
9188;SDS011;34313;50.780;6.084;2023-08-17T13:50:10;38.90;;;28.23;;
9188;SDS011;34313;50.780;6.084;2023-08-17T13:52:36;42.27;;;30.00;;
9188;SDS011;34313;50.780;6.084;2023-08-17T13:55:01;45.80;;;30.73;;
9188;SDS011;34313;50.780;6.084;2023-08-17T13:57:26;45.53;;;29.87;;
9188;SDS011;34313;50.780;6.084;2023-08-17T13:59:52;43.33;;;29.53;;
9188;SDS011;34313;50.780;6.084;2023-08-17T14:02:18;39.77;;;29.20;;
9188;SDS011;34313;50.780;6.084;2023-08-17T14:04:43;50.37;;;31.63;;
9188;SDS011;34313;50.780;6.084;2023-08-17T14:07:09;49.50;;;30.60;;
9188;SDS011;34313;50.780;6.084;2023-08-17T14:09:34;40.03;;;28.63;;
9188;SDS011;34313;50.780;6.084;2023-08-17T14:11:59;50.50;;;32.70;;
9188;SDS011;34313;50.780;6.084;2023-08-17T14:14:25;47.40;;;30.47;;
9188;SDS011;34313;50.780;6.084;2023-08-17T14:16:50;42.40;;;30.33;;
9188;SDS011;34313;50.780;6.084;2023-08-17T14:19:16;46.00;;;29.03;;
9188;SDS011;34313;50.780;6.084;2023-08-17T14:21:41;44.33;;;30.40;;
9188;SDS011;34313;50.780;6.084;2023-08-17T14:24:06;47.50;;;29.07;;
9188;SDS011;34313;50.780;6.084;2023-08-17T14:26:33;45.47;;;29.20;;
9188;SDS011;34313;50.780;6.084;2023-08-17T14:28:58;43.93;;;29.33;;
9188;SDS011;34313;50.780;6.084;2023-08-17T14:31:23;45.67;;;31.30;;
9188;SDS011;34313;50.780;6.084;2023-08-17T14:33:49;42.53;;;29.63;;
9188;SDS011;34313;50.780;6.084;2023-08-17T14:36:14;47.73;;;31.37;;